createdAt,value
2022-10-29T00:01:14.533Z,11.83
2022-10-29T00:11:41.804Z,11.74
2022-10-29T00:22:09.394Z,11.78
2022-10-29T00:32:36.845Z,11.75
2022-10-29T00:43:16.879Z,11.74
2022-10-29T00:53:48.452Z,11.74
2022-10-29T01:04:16.275Z,11.71
2022-10-29T01:14:57.611Z,11.65
2022-10-29T01:25:50.978Z,11.58
2022-10-29T01:36:26.560Z,11.55
2022-10-29T01:46:59.177Z,11.52
2022-10-29T01:57:31.495Z,11.54
2022-10-29T02:08:03.688Z,11.52
2022-10-29T02:18:31.220Z,11.44
2022-10-29T02:28:59.167Z,11.36
2022-10-29T02:39:26.484Z,11.32
2022-10-29T02:49:53.823Z,11.27
2022-10-29T03:00:21.594Z,11.33
2022-10-29T03:10:49.180Z,11.35
2022-10-29T03:21:16.517Z,11.34
2022-10-29T03:31:44.107Z,11.37
2022-10-29T03:42:11.406Z,11.38
2022-10-29T03:52:38.718Z,11.46
2022-10-29T04:03:06.123Z,11.46
2022-10-29T04:13:33.572Z,11.51
2022-10-29T04:34:48.185Z,11.69
2022-10-29T04:45:15.753Z,11.71
2022-10-29T04:55:43.284Z,11.77
2022-10-29T05:06:10.828Z,11.72
2022-10-29T05:16:38.191Z,11.82
2022-10-29T05:27:08.367Z,11.90
2022-10-29T05:37:35.943Z,11.90
2022-10-29T05:48:05.306Z,11.83
2022-10-29T05:58:32.841Z,11.81
2022-10-29T06:09:00.165Z,11.85
2022-10-29T06:19:27.618Z,11.95
2022-10-29T06:29:54.978Z,12.05
2022-10-29T06:40:22.477Z,12.21
2022-10-29T06:50:49.806Z,12.40
2022-10-29T07:01:17.406Z,12.57
2022-10-29T07:11:44.752Z,12.67
2022-10-29T07:22:12.532Z,12.76
2022-10-29T07:32:39.951Z,12.81
2022-10-29T07:43:07.454Z,12.87
2022-10-29T07:53:34.940Z,13.01
2022-10-29T08:04:02.263Z,13.18
2022-10-29T08:14:29.809Z,13.32
2022-10-29T08:24:57.160Z,13.41
2022-10-29T08:35:24.828Z,13.51
2022-10-29T08:45:54.843Z,13.73
2022-10-29T08:56:27.150Z,13.92
2022-10-29T09:07:10.808Z,14.25
2022-10-29T09:17:44.072Z,14.56
2022-10-29T09:28:25.201Z,14.82
2022-10-29T09:38:58.396Z,15.04
2022-10-29T09:49:36.684Z,15.12
2022-10-29T10:00:06.823Z,15.31
2022-10-29T10:10:35.001Z,15.50
2022-10-29T10:21:09.755Z,15.68
2022-10-29T10:31:37.101Z,15.86
2022-10-29T10:42:07.137Z,15.91
2022-10-29T10:52:35.272Z,16.10
2022-10-29T11:03:10.622Z,16.19
2022-10-29T11:13:40.711Z,16.23
2022-10-29T11:24:13.342Z,16.39
2022-10-29T11:34:46.931Z,16.53
2022-10-29T11:45:19.473Z,16.63
2022-10-29T11:55:58.008Z,16.67
2022-10-29T12:06:32.936Z,16.64
2022-10-29T12:17:10.442Z,16.57
2022-10-29T12:27:45.796Z,16.65
2022-10-29T12:38:25.847Z,16.72
2022-10-29T12:49:11.617Z,16.74
2022-10-29T12:59:39.698Z,16.63
2022-10-29T13:10:42.032Z,16.43
2022-10-29T13:21:09.825Z,16.32
2022-10-29T13:31:47.638Z,16.24
2022-10-29T13:42:15.826Z,16.22
2022-10-29T13:52:45.969Z,16.10
2022-10-29T14:03:23.148Z,15.93
2022-10-29T14:13:52.486Z,15.89
2022-10-29T14:24:19.960Z,15.80
2022-10-29T14:34:49.452Z,15.62
2022-10-29T14:45:24.071Z,15.38
2022-10-29T14:55:52.296Z,15.21
2022-10-29T15:06:22.007Z,15.03
2022-10-29T15:16:50.345Z,14.87
2022-10-29T15:27:17.892Z,14.82
2022-10-29T15:37:46.809Z,14.67
2022-10-29T15:48:36.546Z,14.45
2022-10-29T15:59:03.993Z,14.34
2022-10-29T16:09:31.327Z,14.22
2022-10-29T16:19:58.663Z,14.08
2022-10-29T16:30:26.491Z,13.99
2022-10-29T16:40:53.912Z,13.96
2022-10-29T16:51:21.334Z,13.90
2022-10-29T17:01:49.865Z,13.79
2022-10-29T17:12:17.499Z,13.73
2022-10-29T17:22:44.885Z,13.66
2022-10-29T17:33:13.077Z,13.67
2022-10-29T17:43:40.576Z,13.64
2022-10-29T17:54:08.305Z,13.60
2022-10-29T18:04:35.856Z,13.54
2022-10-29T18:15:03.462Z,13.48
2022-10-29T18:25:30.834Z,13.42
2022-10-29T18:35:59.020Z,13.39
2022-10-29T18:46:24.800Z,13.32
2022-10-29T18:56:52.077Z,13.26
2022-10-29T19:07:19.477Z,13.25
2022-10-29T19:17:47.146Z,13.26
2022-10-29T19:28:14.474Z,13.14
2022-10-29T19:38:41.866Z,13.04
2022-10-29T19:49:09.400Z,12.99
2022-10-29T19:59:37.193Z,12.95
2022-10-29T20:10:05.390Z,12.96
2022-10-29T20:20:32.726Z,12.97
2022-10-29T20:31:29.767Z,12.97
2022-10-29T20:41:57.977Z,12.94
2022-10-29T20:52:25.398Z,12.95
2022-10-29T21:02:52.622Z,12.94
2022-10-29T21:13:19.988Z,12.90
2022-10-29T21:23:47.509Z,12.91
2022-10-29T21:34:14.800Z,12.83
2022-10-29T21:44:42.097Z,12.83
2022-10-29T21:55:10.309Z,12.83
2022-10-29T22:05:37.603Z,12.74
2022-10-29T22:16:06.203Z,12.74
2022-10-29T22:26:35.011Z,12.76
2022-10-29T22:37:02.360Z,12.84
2022-10-29T22:47:29.617Z,12.84
2022-10-29T22:57:58.320Z,12.78
2022-10-29T23:08:25.631Z,12.78
2022-10-29T23:18:54.048Z,12.77
2022-10-29T23:29:21.388Z,12.75
2022-10-29T23:39:48.636Z,12.67
2022-10-29T23:50:15.985Z,12.52
